createdAt,value
2022-10-26T00:00:17.130Z,8.50
2022-10-26T00:02:44.235Z,8.63
2022-10-26T00:05:11.321Z,9.47
2022-10-26T00:07:38.450Z,9.47
2022-10-26T00:10:05.806Z,9.07
2022-10-26T00:12:32.967Z,8.37
2022-10-26T00:15:00.024Z,8.90
2022-10-26T00:17:27.143Z,9.20
2022-10-26T00:19:54.976Z,8.70
2022-10-26T00:22:22.049Z,9.10
2022-10-26T00:24:49.094Z,8.87
2022-10-26T00:27:16.199Z,9.27
2022-10-26T00:29:43.289Z,9.10
2022-10-26T00:32:10.434Z,9.33
2022-10-26T00:34:37.515Z,9.03
2022-10-26T00:37:04.601Z,8.87
2022-10-26T00:39:31.702Z,8.97
2022-10-26T00:41:58.807Z,9.30
2022-10-26T00:44:44.334Z,9.70
2022-10-26T00:47:14.778Z,11.23
2022-10-26T00:49:42.136Z,11.80
2022-10-26T00:52:09.805Z,11.43
2022-10-26T00:54:36.922Z,11.00
2022-10-26T00:57:04.383Z,12.43
2022-10-26T00:59:31.794Z,11.57
2022-10-26T01:01:59.101Z,11.23
2022-10-26T01:04:26.328Z,12.13
2022-10-26T01:06:53.709Z,12.13
2022-10-26T01:09:22.390Z,11.60
2022-10-26T01:11:49.464Z,12.23
2022-10-26T01:14:18.852Z,11.53
2022-10-26T01:16:57.151Z,13.13
2022-10-26T01:19:24.282Z,11.83
2022-10-26T01:22:00.401Z,13.13
2022-10-26T01:24:33.595Z,13.37
2022-10-26T01:27:00.715Z,13.13
2022-10-26T01:29:46.567Z,13.50
2022-10-26T01:32:21.370Z,13.20
2022-10-26T01:34:58.063Z,12.70
2022-10-26T01:37:27.636Z,12.60
2022-10-26T01:39:56.573Z,12.90
2022-10-26T01:42:24.372Z,12.43
2022-10-26T01:44:58.530Z,12.63
2022-10-26T01:47:26.852Z,12.10
2022-10-26T01:49:55.953Z,11.83
2022-10-26T01:52:23.541Z,12.10
2022-10-26T01:54:50.750Z,11.67
2022-10-26T01:57:21.974Z,11.53
2022-10-26T01:59:58.095Z,12.60
2022-10-26T02:02:28.915Z,11.80
2022-10-26T02:04:55.993Z,12.93
2022-10-26T02:07:23.087Z,13.13
2022-10-26T02:09:50.137Z,11.90
2022-10-26T02:12:23.035Z,12.30
2022-10-26T02:15:19.618Z,13.47
2022-10-26T02:17:55.116Z,13.07
2022-10-26T02:20:24.981Z,12.83
2022-10-26T02:22:53.473Z,13.33
2022-10-26T02:25:28.380Z,12.03
2022-10-26T02:27:57.180Z,12.37
2022-10-26T02:30:24.422Z,12.33
2022-10-26T02:32:52.824Z,12.00
2022-10-26T02:35:21.740Z,12.40
2022-10-26T02:37:49.463Z,12.83
2022-10-26T02:40:19.719Z,12.63
2022-10-26T02:42:47.433Z,12.77
2022-10-26T02:45:18.092Z,13.13
2022-10-26T02:47:45.188Z,13.93
2022-10-26T02:50:12.333Z,13.30
2022-10-26T02:52:45.894Z,13.30
2022-10-26T02:55:19.507Z,12.57
2022-10-26T02:57:49.252Z,13.40
2022-10-26T03:00:17.853Z,13.43
2022-10-26T03:02:53.275Z,13.47
2022-10-26T03:05:22.487Z,12.93
2022-10-26T03:07:49.614Z,14.20
2022-10-26T03:10:16.739Z,14.33
2022-10-26T03:12:44.816Z,14.30
2022-10-26T03:15:12.022Z,13.87
2022-10-26T03:17:39.095Z,14.80
2022-10-26T03:20:06.497Z,13.63
2022-10-26T03:22:33.555Z,14.80
2022-10-26T03:25:00.738Z,15.77
2022-10-26T03:27:28.020Z,14.23
2022-10-26T03:29:55.097Z,14.30
2022-10-26T03:32:22.190Z,13.93
2022-10-26T03:34:49.251Z,14.47
2022-10-26T03:37:16.316Z,13.20
2022-10-26T03:39:43.345Z,13.23
2022-10-26T03:42:10.432Z,13.60
2022-10-26T03:44:37.488Z,14.00
2022-10-26T03:47:04.556Z,13.93
2022-10-26T03:49:31.620Z,14.83
2022-10-26T03:51:58.730Z,15.07
2022-10-26T03:54:25.838Z,14.80
2022-10-26T03:56:55.106Z,14.27
2022-10-26T03:59:22.599Z,14.00
2022-10-26T04:01:52.733Z,13.90
2022-10-26T04:04:23.747Z,15.10
2022-10-26T04:06:50.888Z,14.20
2022-10-26T04:09:17.948Z,15.73
2022-10-26T04:11:45.032Z,15.53
2022-10-26T04:14:12.167Z,14.97
2022-10-26T04:16:39.291Z,15.63
2022-10-26T04:19:06.369Z,16.50
2022-10-26T04:21:33.494Z,14.73
2022-10-26T04:24:00.615Z,14.67
2022-10-26T04:26:27.787Z,15.20
2022-10-26T04:28:54.895Z,16.23
2022-10-26T04:31:21.999Z,15.30
2022-10-26T04:33:49.037Z,15.20
2022-10-26T04:36:16.086Z,15.90
2022-10-26T04:38:43.141Z,15.00
2022-10-26T04:41:10.201Z,15.57
2022-10-26T04:43:37.250Z,15.10
2022-10-26T04:46:04.350Z,14.43
2022-10-26T04:48:31.428Z,14.50
2022-10-26T04:51:01.941Z,13.90
2022-10-26T04:53:29.063Z,14.97
2022-10-26T04:55:59.885Z,14.53
2022-10-26T04:58:27.333Z,15.50
2022-10-26T05:00:54.504Z,15.53
2022-10-26T05:03:21.832Z,15.17
2022-10-26T05:05:48.973Z,14.90
2022-10-26T05:08:16.353Z,14.67
2022-10-26T05:10:43.529Z,14.27
2022-10-26T05:13:11.374Z,14.57
2022-10-26T05:15:38.450Z,14.30
2022-10-26T05:18:06.295Z,14.67
2022-10-26T05:20:34.882Z,14.73
2022-10-26T05:23:03.113Z,14.60
2022-10-26T05:25:31.734Z,14.00
2022-10-26T05:27:59.456Z,14.67
2022-10-26T05:30:26.715Z,14.03
2022-10-26T05:32:57.200Z,14.13
2022-10-26T05:35:24.442Z,14.67
2022-10-26T05:37:51.496Z,14.17
2022-10-26T05:40:18.724Z,15.93
2022-10-26T05:42:46.255Z,15.87
2022-10-26T05:45:13.573Z,16.10
2022-10-26T05:47:44.210Z,15.70
2022-10-26T05:50:12.038Z,15.90
2022-10-26T05:52:40.475Z,16.73
2022-10-26T05:55:11.335Z,15.80
2022-10-26T05:57:38.851Z,15.90
2022-10-26T06:00:10.308Z,16.27
2022-10-26T06:02:49.129Z,14.93
2022-10-26T06:05:20.149Z,15.53
2022-10-26T06:07:47.594Z,15.93
2022-10-26T06:10:15.204Z,15.93
2022-10-26T06:12:42.517Z,15.23
2022-10-26T06:15:17.632Z,16.53
2022-10-26T06:18:00.003Z,16.27
2022-10-26T06:20:27.285Z,15.83
2022-10-26T06:22:54.497Z,16.33
2022-10-26T06:25:32.408Z,14.97
2022-10-26T06:28:18.440Z,15.90
2022-10-26T06:30:45.625Z,15.27
2022-10-26T06:33:24.861Z,15.10
2022-10-26T06:35:56.294Z,14.73
2022-10-26T06:38:24.066Z,14.63
2022-10-26T06:40:52.897Z,15.00
2022-10-26T06:43:23.212Z,14.73
2022-10-26T06:45:55.077Z,14.47
2022-10-26T06:48:25.298Z,13.70
2022-10-26T06:50:53.225Z,12.23
2022-10-26T06:53:30.246Z,13.03
2022-10-26T06:55:59.148Z,12.73
2022-10-26T06:58:29.152Z,13.27
2022-10-26T07:00:56.984Z,14.13
2022-10-26T07:03:24.079Z,13.20
2022-10-26T07:05:51.215Z,11.33
2022-10-26T07:08:18.324Z,12.30
2022-10-26T07:10:45.386Z,11.83
2022-10-26T07:13:12.484Z,11.83
2022-10-26T07:15:40.446Z,10.80
2022-10-26T07:18:08.427Z,10.63
2022-10-26T07:20:39.683Z,11.07
2022-10-26T07:23:07.216Z,10.63
2022-10-26T07:25:34.901Z,10.23
2022-10-26T07:28:02.236Z,10.43
2022-10-26T07:30:29.913Z,11.20
2022-10-26T07:33:03.771Z,10.90
2022-10-26T07:35:30.894Z,10.57
2022-10-26T07:37:58.953Z,9.70
2022-10-26T07:40:26.166Z,9.57
2022-10-26T07:42:53.934Z,10.17
2022-10-26T07:45:21.191Z,9.77
2022-10-26T07:47:48.337Z,11.20
2022-10-26T07:50:15.424Z,10.93
2022-10-26T07:52:42.697Z,10.50
2022-10-26T07:55:10.913Z,11.00
2022-10-26T07:57:38.140Z,10.23
2022-10-26T08:00:06.957Z,10.93
2022-10-26T08:02:34.065Z,10.03
2022-10-26T08:05:01.272Z,10.13
2022-10-26T08:07:28.910Z,10.23
2022-10-26T08:09:56.061Z,10.70
2022-10-26T08:12:23.104Z,9.50
2022-10-26T08:14:50.276Z,9.40
2022-10-26T08:17:17.377Z,9.37
2022-10-26T08:19:44.486Z,9.80
2022-10-26T08:22:11.658Z,9.23
2022-10-26T08:24:38.774Z,9.30
2022-10-26T08:27:05.866Z,7.67
2022-10-26T08:29:33.021Z,7.13
2022-10-26T08:32:00.084Z,7.20
2022-10-26T08:34:27.186Z,7.20
2022-10-26T08:36:54.250Z,6.67
2022-10-26T08:39:21.441Z,6.90
2022-10-26T08:41:53.392Z,7.07
2022-10-26T08:44:20.418Z,6.47
2022-10-26T08:46:49.016Z,6.33
2022-10-26T08:49:42.562Z,6.10
2022-10-26T08:52:12.222Z,5.67
2022-10-26T08:54:45.012Z,5.87
2022-10-26T08:57:24.142Z,6.03
2022-10-26T08:59:59.911Z,6.07
2022-10-26T09:02:27.025Z,6.37
2022-10-26T09:04:54.751Z,5.90
2022-10-26T09:07:24.835Z,6.00
2022-10-26T09:09:57.785Z,6.30
2022-10-26T09:12:28.951Z,5.40
2022-10-26T09:15:16.296Z,5.50
2022-10-26T09:17:58.620Z,5.38
2022-10-26T09:20:28.637Z,5.25
2022-10-26T09:23:14.671Z,5.20
2022-10-26T09:25:42.039Z,4.63
2022-10-26T09:28:18.046Z,4.75
2022-10-26T09:30:45.913Z,5.45
2022-10-26T09:33:16.098Z,5.97
2022-10-26T09:35:45.185Z,5.57
2022-10-26T09:38:12.258Z,5.95
2022-10-26T09:40:54.059Z,5.88
2022-10-26T09:43:27.469Z,5.47
2022-10-26T09:45:54.770Z,5.75
2022-10-26T09:48:27.708Z,5.45
2022-10-26T09:51:00.516Z,5.88
2022-10-26T09:53:30.860Z,5.30
2022-10-26T09:56:02.402Z,5.50
2022-10-26T09:58:31.480Z,5.37
2022-10-26T10:00:58.588Z,5.83
2022-10-26T10:03:27.190Z,6.17
2022-10-26T10:05:54.599Z,6.00
2022-10-26T10:08:22.916Z,5.97
2022-10-26T10:11:05.042Z,6.07
2022-10-26T10:13:36.454Z,6.20
2022-10-26T10:16:12.400Z,6.40
2022-10-26T10:18:40.243Z,6.20
2022-10-26T10:21:08.219Z,6.20
2022-10-26T10:23:36.358Z,7.00
2022-10-26T10:26:06.247Z,6.73
2022-10-26T10:28:34.074Z,7.77
2022-10-26T10:31:02.484Z,6.67
2022-10-26T10:33:34.608Z,6.70
2022-10-26T10:36:02.482Z,6.27
2022-10-26T10:38:29.865Z,7.10
2022-10-26T10:41:03.803Z,6.77
2022-10-26T10:43:30.932Z,7.70
2022-10-26T10:45:59.779Z,7.70
2022-10-26T10:48:28.568Z,9.53
2022-10-26T10:50:58.809Z,8.50
2022-10-26T10:53:43.833Z,7.77
2022-10-26T10:56:16.853Z,7.80
2022-10-26T10:59:02.509Z,7.33
2022-10-26T11:01:36.462Z,6.90
2022-10-26T11:04:12.734Z,6.55
2022-10-26T11:06:41.538Z,7.35
2022-10-26T11:09:10.694Z,6.13
2022-10-26T11:11:41.888Z,6.25
2022-10-26T11:14:14.919Z,6.45
2022-10-26T11:16:47.906Z,6.72
2022-10-26T11:19:24.186Z,5.40
2022-10-26T11:21:54.978Z,5.38
2022-10-26T11:24:25.076Z,3.78
2022-10-26T11:26:58.596Z,4.20
2022-10-26T11:29:49.005Z,2.58
2022-10-26T11:32:16.308Z,2.72
2022-10-26T11:34:46.446Z,1.98
2022-10-26T11:37:20.193Z,1.90
2022-10-26T11:39:51.144Z,2.10
2022-10-26T11:42:31.187Z,2.03
2022-10-26T11:45:14.096Z,2.28
2022-10-26T11:47:59.852Z,1.98
2022-10-26T11:50:30.198Z,2.30
2022-10-26T11:53:00.269Z,2.10
2022-10-26T11:55:27.376Z,2.10
2022-10-26T11:57:55.052Z,2.40
2022-10-26T12:00:22.700Z,2.20
2022-10-26T12:02:52.634Z,2.00
2022-10-26T12:05:35.101Z,2.10
2022-10-26T12:08:07.439Z,2.20
2022-10-26T12:10:35.910Z,2.10
2022-10-26T12:13:08.772Z,2.00
2022-10-26T12:16:02.154Z,2.08
2022-10-26T12:18:50.272Z,2.28
2022-10-26T12:21:18.562Z,2.10
2022-10-26T12:24:01.769Z,2.50
2022-10-26T12:26:28.827Z,2.30
2022-10-26T12:29:04.988Z,2.33
2022-10-26T12:31:32.037Z,2.10
2022-10-26T12:33:59.875Z,2.05
2022-10-26T12:36:45.847Z,2.50
2022-10-26T12:39:31.273Z,2.28
2022-10-26T12:42:07.173Z,2.10
2022-10-26T12:44:37.107Z,2.25
2022-10-26T12:47:07.961Z,2.28
2022-10-26T12:49:53.584Z,2.20
2022-10-26T12:52:21.681Z,2.40
2022-10-26T12:55:01.315Z,2.30
2022-10-26T12:57:32.731Z,2.20
2022-10-26T13:00:05.118Z,2.40
2022-10-26T13:02:51.155Z,2.55
2022-10-26T13:05:24.749Z,2.08
2022-10-26T13:07:52.006Z,2.58
2022-10-26T13:10:21.464Z,2.08
2022-10-26T13:12:48.670Z,2.20
2022-10-26T13:15:20.334Z,1.85
2022-10-26T13:18:01.678Z,2.60
2022-10-26T13:20:31.007Z,2.22
2022-10-26T13:22:58.440Z,2.40
2022-10-26T13:25:27.366Z,2.10
2022-10-26T13:28:00.320Z,2.03
2022-10-26T13:30:43.507Z,2.15
2022-10-26T13:33:16.701Z,1.95
2022-10-26T13:35:44.355Z,2.00
2022-10-26T13:38:12.815Z,2.20
2022-10-26T13:40:40.705Z,2.28
2022-10-26T13:43:12.541Z,2.20
2022-10-26T13:45:59.973Z,2.30
2022-10-26T13:48:34.524Z,2.30
2022-10-26T13:51:03.996Z,1.92
2022-10-26T13:53:43.252Z,1.90
2022-10-26T13:56:13.304Z,2.05
2022-10-26T13:58:43.887Z,2.42
2022-10-26T14:01:11.806Z,1.83
2022-10-26T14:03:39.161Z,1.90
2022-10-26T14:06:07.391Z,2.10
2022-10-26T14:08:34.512Z,1.70
2022-10-26T14:11:01.622Z,1.90
2022-10-26T14:13:29.527Z,1.90
2022-10-26T14:15:58.439Z,2.08
2022-10-26T14:18:27.049Z,2.00
2022-10-26T14:20:57.510Z,1.98
2022-10-26T14:23:28.362Z,1.80
2022-10-26T14:25:58.860Z,1.70
2022-10-26T14:28:28.080Z,2.10
2022-10-26T14:30:57.166Z,1.90
2022-10-26T14:33:29.100Z,1.92
2022-10-26T14:35:56.960Z,1.67
2022-10-26T14:38:32.464Z,1.80
2022-10-26T14:40:59.591Z,1.88
2022-10-26T14:43:26.916Z,1.73
2022-10-26T14:45:56.732Z,2.00
2022-10-26T14:48:31.724Z,2.10
2022-10-26T14:51:02.944Z,1.90
2022-10-26T14:53:40.411Z,2.00
2022-10-26T14:56:18.844Z,2.17
2022-10-26T14:58:45.974Z,2.17
2022-10-26T15:01:22.449Z,2.33
2022-10-26T15:04:03.021Z,2.00
2022-10-26T15:06:30.109Z,1.85
2022-10-26T15:09:01.100Z,1.80
2022-10-26T15:11:28.773Z,2.05
2022-10-26T15:13:56.680Z,2.67
2022-10-26T15:16:25.064Z,2.60
2022-10-26T15:18:57.492Z,2.30
2022-10-26T15:21:24.556Z,2.20
2022-10-26T15:23:52.178Z,2.10
2022-10-26T15:26:19.763Z,2.25
2022-10-26T15:28:49.602Z,1.85
2022-10-26T15:31:16.677Z,2.03
2022-10-26T15:34:04.012Z,1.98
2022-10-26T15:36:32.055Z,2.50
2022-10-26T15:38:59.561Z,2.28
2022-10-26T15:41:31.111Z,2.47
2022-10-26T15:43:59.188Z,2.47
2022-10-26T15:46:29.716Z,2.60
2022-10-26T15:48:58.507Z,2.42
2022-10-26T15:51:25.804Z,2.13
2022-10-26T15:53:52.890Z,2.07
2022-10-26T15:56:20.901Z,2.00
2022-10-26T15:58:48.029Z,2.00
2022-10-26T16:01:17.087Z,1.87
2022-10-26T16:03:44.325Z,2.10
2022-10-26T16:06:18.658Z,2.10
2022-10-26T16:08:49.521Z,2.07
2022-10-26T16:11:16.797Z,2.50
2022-10-26T16:13:44.004Z,2.20
2022-10-26T16:16:14.663Z,3.03
2022-10-26T16:18:41.835Z,2.83
2022-10-26T16:21:13.052Z,3.10
2022-10-26T16:23:40.626Z,2.73
2022-10-26T16:26:08.270Z,2.37
2022-10-26T16:28:35.701Z,3.00
2022-10-26T16:31:03.303Z,3.43
2022-10-26T16:33:30.416Z,3.00
2022-10-26T16:35:58.251Z,3.07
2022-10-26T16:38:26.483Z,2.80
2022-10-26T16:41:03.476Z,2.73
2022-10-26T16:43:34.683Z,2.97
2022-10-26T16:46:05.503Z,2.90
2022-10-26T16:48:32.579Z,2.83
2022-10-26T16:51:04.932Z,2.67
2022-10-26T16:53:32.013Z,3.20
2022-10-26T16:56:02.943Z,3.10
2022-10-26T16:58:32.338Z,3.00
2022-10-26T17:01:02.562Z,2.73
2022-10-26T17:03:29.782Z,2.80
2022-10-26T17:05:57.850Z,2.63
2022-10-26T17:08:25.293Z,3.20
2022-10-26T17:10:52.458Z,2.87
2022-10-26T17:13:19.573Z,3.30
2022-10-26T17:15:46.903Z,3.90
2022-10-26T17:18:14.105Z,3.40
2022-10-26T17:20:41.309Z,3.43
2022-10-26T17:23:08.509Z,3.67
2022-10-26T17:25:38.271Z,3.80
2022-10-26T17:28:05.463Z,3.57
2022-10-26T17:30:34.859Z,3.27
2022-10-26T17:33:02.590Z,3.13
2022-10-26T17:35:29.662Z,3.30
2022-10-26T17:37:56.775Z,3.43
2022-10-26T17:40:23.831Z,2.90
2022-10-26T17:42:50.954Z,2.90
2022-10-26T17:45:18.097Z,2.90
2022-10-26T17:47:45.192Z,3.53
2022-10-26T17:50:12.547Z,3.40
2022-10-26T17:52:39.602Z,3.00
2022-10-26T17:55:06.808Z,3.53
2022-10-26T17:57:34.070Z,3.23
2022-10-26T18:00:01.159Z,4.40
2022-10-26T18:02:28.365Z,4.53
2022-10-26T18:04:55.535Z,4.17
2022-10-26T18:07:22.644Z,5.23
2022-10-26T18:09:49.794Z,6.03
2022-10-26T18:12:16.861Z,5.17
2022-10-26T18:14:43.939Z,5.00
2022-10-26T18:17:11.207Z,4.50
2022-10-26T18:19:38.287Z,4.00
2022-10-26T18:22:05.394Z,3.83
2022-10-26T18:24:32.506Z,3.73
2022-10-26T18:26:59.631Z,3.70
2022-10-26T18:29:26.699Z,3.67
2022-10-26T18:31:53.792Z,3.10
2022-10-26T18:34:20.851Z,3.53
2022-10-26T18:36:47.903Z,3.70
2022-10-26T18:39:15.042Z,3.03
2022-10-26T18:41:42.158Z,3.70
2022-10-26T18:44:09.257Z,4.03
2022-10-26T18:46:40.073Z,4.67
2022-10-26T18:49:07.420Z,5.17
2022-10-26T18:51:35.002Z,5.90
2022-10-26T18:54:02.385Z,4.50
2022-10-26T18:56:29.530Z,3.90
2022-10-26T18:58:58.704Z,3.60
2022-10-26T19:01:27.011Z,3.90
2022-10-26T19:03:55.596Z,3.43
2022-10-26T19:06:25.002Z,3.20
2022-10-26T19:08:52.642Z,3.50
2022-10-26T19:11:20.596Z,3.53
2022-10-26T19:13:47.749Z,3.63
2022-10-26T19:16:40.301Z,3.77
2022-10-26T19:19:05.881Z,3.87
2022-10-26T19:21:33.369Z,3.57
2022-10-26T19:24:01.247Z,3.67
2022-10-26T19:26:33.381Z,3.27
2022-10-26T19:29:03.424Z,3.47
2022-10-26T19:31:34.401Z,3.33
2022-10-26T19:34:01.978Z,3.40
2022-10-26T19:36:29.756Z,3.67
2022-10-26T19:38:57.011Z,3.50
2022-10-26T19:41:26.535Z,3.40
2022-10-26T19:43:54.077Z,3.47
2022-10-26T19:46:22.426Z,4.10
2022-10-26T19:48:50.315Z,3.50
2022-10-26T19:51:17.408Z,3.77
2022-10-26T19:53:44.533Z,3.40
2022-10-26T19:56:13.340Z,3.60
2022-10-26T19:58:44.104Z,3.80
2022-10-26T20:01:12.231Z,5.30
2022-10-26T20:03:39.425Z,9.97
2022-10-26T20:06:08.471Z,9.33
2022-10-26T20:08:36.060Z,8.50
2022-10-26T20:11:03.193Z,7.43
2022-10-26T20:13:30.267Z,7.27
2022-10-26T20:15:57.349Z,8.20
2022-10-26T20:18:24.452Z,7.57
2022-10-26T20:20:51.590Z,7.10
2022-10-26T20:23:18.710Z,5.70
2022-10-26T20:25:49.517Z,6.03
2022-10-26T20:28:17.393Z,4.90
2022-10-26T20:30:45.238Z,5.10
2022-10-26T20:33:12.568Z,4.80
2022-10-26T20:35:39.901Z,4.70
2022-10-26T20:38:07.748Z,4.60
2022-10-26T20:40:35.530Z,4.73
2022-10-26T20:43:02.857Z,5.30
2022-10-26T20:45:33.236Z,4.97
2022-10-26T20:48:01.083Z,5.87
2022-10-26T20:50:31.317Z,5.90
2022-10-26T20:53:04.685Z,5.90
2022-10-26T20:55:34.759Z,6.10
2022-10-26T20:58:11.876Z,7.30
2022-10-26T21:00:42.347Z,7.07
2022-10-26T21:03:11.465Z,8.20
2022-10-26T21:05:38.589Z,8.80
2022-10-26T21:08:05.675Z,8.57
2022-10-26T21:10:32.896Z,7.77
2022-10-26T21:12:59.984Z,7.23
2022-10-26T21:15:27.017Z,8.53
2022-10-26T21:17:54.375Z,8.00
2022-10-26T21:20:21.461Z,8.23
2022-10-26T21:22:48.583Z,7.60
2022-10-26T21:25:15.687Z,8.53
2022-10-26T21:27:42.743Z,8.50
2022-10-26T21:30:10.212Z,7.70
2022-10-26T21:32:37.352Z,7.70
2022-10-26T21:35:04.645Z,7.43
2022-10-26T21:37:31.718Z,7.80
2022-10-26T21:39:58.804Z,7.77
2022-10-26T21:42:25.846Z,9.30
2022-10-26T21:44:52.894Z,8.73
2022-10-26T21:47:19.981Z,8.73
2022-10-26T21:49:47.138Z,8.80
2022-10-26T21:52:14.187Z,8.60
2022-10-26T21:54:41.257Z,9.80
2022-10-26T21:57:08.324Z,10.87
2022-10-26T21:59:35.424Z,10.50
2022-10-26T22:02:02.684Z,12.17
2022-10-26T22:04:29.950Z,10.73
2022-10-26T22:06:57.039Z,10.70
2022-10-26T22:09:24.128Z,10.57
2022-10-26T22:11:51.202Z,10.53
2022-10-26T22:14:18.879Z,11.50
2022-10-26T22:16:46.033Z,11.27
2022-10-26T22:19:13.181Z,13.20
2022-10-26T22:21:41.242Z,13.70
2022-10-26T22:24:08.708Z,12.87
2022-10-26T22:26:37.149Z,13.20
2022-10-26T22:29:04.751Z,12.17
2022-10-26T22:31:33.567Z,12.10
2022-10-26T22:34:06.381Z,11.80
2022-10-26T22:36:35.066Z,12.30
2022-10-26T22:39:02.234Z,15.93
2022-10-26T22:41:29.355Z,14.47
2022-10-26T22:43:56.414Z,13.53
2022-10-26T22:46:24.819Z,13.47
2022-10-26T22:48:56.036Z,12.63
2022-10-26T22:51:24.209Z,12.47
2022-10-26T22:53:55.202Z,12.93
2022-10-26T22:56:23.451Z,14.63
2022-10-26T22:58:52.041Z,13.07
2022-10-26T23:01:20.586Z,13.90
2022-10-26T23:03:47.814Z,13.17
2022-10-26T23:06:15.854Z,13.47
2022-10-26T23:08:42.943Z,13.37
2022-10-26T23:11:14.950Z,12.73
2022-10-26T23:13:42.199Z,12.97
2022-10-26T23:16:18.645Z,12.20
2022-10-26T23:18:45.801Z,12.77
2022-10-26T23:21:13.635Z,12.63
2022-10-26T23:23:40.846Z,12.10
2022-10-26T23:26:12.636Z,12.07
2022-10-26T23:28:40.375Z,14.97
2022-10-26T23:31:07.915Z,13.33
2022-10-26T23:33:35.224Z,12.77
2022-10-26T23:36:02.355Z,12.90
2022-10-26T23:38:29.419Z,12.80
2022-10-26T23:40:57.679Z,12.17
2022-10-26T23:43:25.256Z,11.83
2022-10-26T23:45:52.636Z,12.17
2022-10-26T23:48:20.268Z,12.17
2022-10-26T23:50:48.275Z,13.27
2022-10-26T23:53:16.397Z,12.77
2022-10-26T23:55:44.660Z,12.97
2022-10-26T23:58:12.283Z,14.17
